Time;durP1;ratioP1;P1;durP2;ratioP2;P2;SDS_P1;SDS_P2;PMS_P1;PMS_P2;Temp;Humidity;BMP_temperature;BMP_pressure;BME280_temperature;BME280_humidity;BME280_pressure;Samples;Min_cycle;Max_cycle;Signal;HPM_P1;HPM_P2
2021/11/03 00:00:22;;;;;;;0.20;0.20;;;14.10;99.90;;;;;;20343375;29;20322;-71
2021/11/03 00:10:29;;;;;;;0.20;0.10;;;14.80;99.90;;;;;;20342199;29;20333;-71
2021/11/03 00:20:34;;;;;;;0.20;0.10;;;14.80;99.90;;;;;;20341049;29;20234;-71
2021/11/03 00:30:40;;;;;;;0.20;0.00;;;14.90;99.90;;;;;;20388348;29;20232;-72
2021/11/03 00:40:44;;;;;;;0.20;0.10;;;15.00;99.90;;;;;;20401370;29;20273;-71
2021/11/03 00:50:50;;;;;;;0.20;0.10;;;14.90;99.90;;;;;;20417848;29;20758;-70
2021/11/03 01:00:54;;;;;;;0.20;0.10;;;15.00;99.90;;;;;;20417676;29;20221;-71
2021/11/03 01:11:00;;;;;;;0.20;0.10;;;14.90;99.90;;;;;;20415885;29;20229;-71
2021/11/03 01:21:05;;;;;;;0.20;0.10;;;14.80;99.90;;;;;;20415993;29;20595;-70
2021/11/03 01:31:10;;;;;;;0.20;0.10;;;14.90;99.90;;;;;;20415933;29;20235;-70
2021/11/03 01:41:15;;;;;;;0.20;0.00;;;14.90;99.90;;;;;;20414619;29;20206;-71
2021/11/03 01:51:28;;;;;;;0.20;0.07;;;14.90;99.90;;;;;;20382487;29;20236;-70
2021/11/03 02:01:31;;;;;;;0.20;0.10;;;14.40;99.90;;;;;;20415237;29;20233;-70
2021/11/03 02:11:37;;;;;;;0.20;0.10;;;14.20;99.90;;;;;;20397623;29;20235;-71
2021/11/03 02:21:51;;;;;;;0.20;0.00;;;13.70;99.90;;;;;;20423268;29;20208;-70
2021/11/03 02:31:58;;;;;;;0.20;0.10;;;14.50;99.90;;;;;;20427146;29;20260;-71
2021/11/03 02:42:02;;;;;;;0.20;0.00;;;14.40;99.90;;;;;;20428460;29;20711;-70
2021/11/03 02:52:14;;;;;;;0.20;0.10;;;14.00;99.90;;;;;;20409541;29;20221;-71
2021/11/03 03:02:18;;;;;;;0.20;0.20;;;13.30;99.90;;;;;;20431900;23;20267;-77
2021/11/03 03:12:29;;;;;;;0.20;0.10;;;12.80;99.90;;;;;;20433119;29;20221;-77
2021/11/03 03:22:33;;;;;;;0.20;0.00;;;12.40;99.90;;;;;;20425319;29;20276;-76
2021/11/03 03:32:38;;;;;;;0.20;0.10;;;12.40;99.90;;;;;;20421242;29;20576;-76
2021/11/03 03:42:42;;;;;;;0.20;0.10;;;12.50;99.90;;;;;;20423087;29;20194;-76
2021/11/03 03:52:47;;;;;;;0.20;0.10;;;12.80;99.90;;;;;;20421819;29;20718;-76
2021/11/03 04:02:52;;;;;;;0.20;0.10;;;13.00;99.90;;;;;;20433093;23;20674;-69
2021/11/03 04:12:58;;;;;;;0.20;0.10;;;12.90;99.90;;;;;;20420271;29;20252;-69
2021/11/03 04:23:01;;;;;;;0.20;0.10;;;12.80;99.90;;;;;;20419062;29;20206;-69
2021/11/03 04:33:07;;;;;;;0.20;0.10;;;12.70;99.90;;;;;;20419283;29;20307;-69
2021/11/03 04:43:10;;;;;;;0.20;0.10;;;13.40;99.90;;;;;;20417550;29;20301;-69
2021/11/03 04:53:16;;;;;;;0.20;0.00;;;14.00;99.90;;;;;;20418631;29;20246;-69
2021/11/03 05:03:19;;;;;;;0.20;0.00;;;14.20;99.90;;;;;;20400638;29;20225;-69
2021/11/03 05:13:24;;;;;;;0.20;0.10;;;13.90;99.90;;;;;;20416591;29;20710;-70
2021/11/03 05:23:28;;;;;;;0.20;0.10;;;13.60;99.90;;;;;;20416602;29;20225;-70
2021/11/03 05:33:33;;;;;;;0.20;0.10;;;13.40;99.90;;;;;;20416079;29;20312;-70
2021/11/03 05:43:36;;;;;;;0.20;0.00;;;13.00;99.90;;;;;;20416476;29;20210;-69
2021/11/03 05:53:42;;;;;;;0.20;0.10;;;13.00;99.90;;;;;;20420496;29;20312;-69
2021/11/03 06:03:46;;;;;;;0.20;0.10;;;13.00;99.90;;;;;;20431340;29;20296;-69
2021/11/03 06:13:51;;;;;;;0.20;0.10;;;13.10;99.90;;;;;;20413454;29;20324;-69
2021/11/03 06:23:54;;;;;;;0.20;0.10;;;13.40;99.90;;;;;;20428835;29;20233;-69
2021/11/03 06:34:02;;;;;;;0.20;0.10;;;13.40;99.90;;;;;;20408994;29;20641;-69
2021/11/03 06:44:06;;;;;;;0.20;0.10;;;13.50;99.90;;;;;;20407823;29;20216;-71
2021/11/03 06:54:11;;;;;;;0.20;0.10;;;13.60;99.90;;;;;;20423957;29;20217;-70
2021/11/03 07:04:17;;;;;;;0.20;0.10;;;13.60;99.90;;;;;;20418402;29;20229;-70
2021/11/03 07:14:22;;;;;;;0.20;0.00;;;13.70;99.90;;;;;;20419078;29;20827;-70
2021/11/03 07:24:25;;;;;;;0.20;0.10;;;13.90;99.90;;;;;;20420544;29;20224;-70
2021/11/03 07:34:30;;;;;;;0.20;0.00;;;13.90;99.90;;;;;;20421140;29;20323;-70
2021/11/03 07:44:34;;;;;;;0.20;0.10;;;13.90;99.90;;;;;;20419574;29;20217;-70
2021/11/03 07:54:39;;;;;;;0.20;0.10;;;13.70;99.90;;;;;;20418257;29;20709;-68
2021/11/03 08:04:43;;;;;;;0.20;0.03;;;13.80;99.90;;;;;;20403217;29;20277;-69
2021/11/03 08:14:48;;;;;;;0.20;0.10;;;13.70;99.90;;;;;;20399732;29;20347;-70
2021/11/03 08:24:52;;;;;;;0.20;0.00;;;13.90;99.90;;;;;;20417063;29;20225;-70
2021/11/03 08:35:01;;;;;;;0.20;0.10;;;14.20;99.90;;;;;;20399523;29;20312;-68
2021/11/03 08:45:07;;;;;;;0.20;0.00;;;14.20;99.90;;;;;;20399716;29;20205;-69
2021/11/03 08:55:12;;;;;;;0.20;0.10;;;14.20;99.90;;;;;;20434142;29;20274;-70
2021/11/03 09:05:16;;;;;;;0.20;0.10;;;14.00;99.90;;;;;;20449244;29;20221;-69
2021/11/03 09:15:24;;;;;;;0.20;0.00;;;14.20;99.90;;;;;;20377802;29;20317;-68
2021/11/03 09:25:28;;;;;;;0.20;0.10;;;14.30;99.90;;;;;;20412969;29;20304;-69
2021/11/03 09:35:36;;;;;;;0.20;0.10;;;14.20;99.90;;;;;;20397270;29;20897;-70
2021/11/03 09:45:40;;;;;;;0.20;0.10;;;14.40;99.90;;;;;;20414911;29;20201;-69
2021/11/03 09:55:45;;;;;;;0.20;0.10;;;14.40;99.90;;;;;;20396130;29;20670;-68
2021/11/03 10:05:53;;;;;;;0.20;0.10;;;14.40;99.90;;;;;;20381781;29;20321;-70
2021/11/03 10:16:01;;;;;;;0.20;0.10;;;14.50;99.90;;;;;;20333757;29;20222;-69
2021/11/03 10:26:08;;;;;;;0.20;0.07;;;14.50;99.90;;;;;;20362301;29;20202;-70
2021/11/03 10:36:18;;;;;;;0.20;0.10;;;14.60;99.90;;;;;;20411520;29;20710;-70
2021/11/03 10:46:26;;;;;;;0.20;0.00;;;14.90;99.90;;;;;;20405541;29;20205;-69
2021/11/03 10:56:34;;;;;;;0.30;0.23;;;14.90;99.90;;;;;;20423838;29;20248;-69
2021/11/03 11:06:41;;;;;;;0.20;0.03;;;14.90;99.90;;;;;;20424117;29;20742;-70
2021/11/03 11:16:50;;;;;;;0.20;0.10;;;15.60;99.90;;;;;;20423195;29;20634;-69
2021/11/03 11:27:04;;;;;;;0.20;0.10;;;16.40;99.90;;;;;;20420048;29;20245;-69
2021/11/03 11:37:17;;;;;;;0.20;0.10;;;17.70;99.90;;;;;;20421553;29;20301;-70
2021/11/03 11:47:34;;;;;;;0.20;0.00;;;17.90;99.90;;;;;;20421266;29;20227;-68
2021/11/03 11:57:40;;;;;;;0.20;0.10;;;18.70;99.90;;;;;;20419889;29;20324;-68
2021/11/03 12:07:43;;;;;;;0.20;0.00;;;19.10;99.90;;;;;;20418069;29;20303;-69
2021/11/03 12:17:59;;;;;;;0.20;0.00;;;19.30;99.90;;;;;;20418353;29;20256;-69
2021/11/03 12:28:38;;;;;;;0.20;0.10;;;19.20;99.90;;;;;;20400036;29;20288;-68
2021/11/03 12:39:00;;;;;;;0.20;0.10;;;19.80;99.90;;;;;;20392937;29;20260;-70
2021/11/03 12:49:04;;;;;;;0.20;0.00;;;19.80;99.90;;;;;;20415500;29;20256;-68
2021/11/03 12:59:22;;;;;;;0.20;0.00;;;20.10;99.90;;;;;;20412356;29;20225;-69
2021/11/03 13:09:31;;;;;;;0.20;0.10;;;20.50;99.90;;;;;;20414093;29;20609;-69
2021/11/03 13:19:42;;;;;;;0.20;0.10;;;20.40;99.90;;;;;;20413822;29;20233;-70
2021/11/03 13:29:52;;;;;;;0.20;0.10;;;20.50;99.90;;;;;;20408810;29;20359;-69
2021/11/03 13:40:18;;;;;;;0.20;0.10;;;20.20;99.90;;;;;;20391771;29;20559;-69
2021/11/03 13:50:27;;;;;;;0.20;0.10;;;18.40;99.90;;;;;;20412605;29;20228;-70
2021/11/03 14:00:36;;;;;;;0.20;0.00;;;19.70;99.90;;;;;;20412673;29;20361;-69
2021/11/03 14:10:40;;;;;;;0.20;0.10;;;21.20;99.90;;;;;;20412465;29;20653;-70
2021/11/03 14:20:51;;;;;;;0.20;0.10;;;21.20;99.90;;;;;;20426278;29;20229;-70
2021/11/03 14:30:57;;;;;;;0.20;0.00;;;20.90;99.90;;;;;;20425249;29;20276;-68
2021/11/03 14:41:04;;;;;;;0.20;0.00;;;21.00;99.90;;;;;;20408809;29;20269;-69
2021/11/03 14:51:08;;;;;;;0.20;0.00;;;21.70;99.90;;;;;;20424803;29;20234;-69
2021/11/03 15:01:30;;;;;;;0.20;0.00;;;20.50;99.90;;;;;;20424378;29;20288;-71
2021/11/03 15:11:34;;;;;;;0.20;0.10;;;19.60;99.90;;;;;;20422456;29;20344;-71
2021/11/03 15:21:39;;;;;;;0.20;0.20;;;17.90;99.90;;;;;;20422090;29;20260;-70
2021/11/03 15:31:46;;;;;;;0.20;0.10;;;17.10;99.90;;;;;;20389427;29;20213;-70
2021/11/03 15:41:56;;;;;;;0.20;0.10;;;16.90;99.90;;;;;;20421048;29;20585;-70
2021/11/03 15:52:02;;;;;;;0.20;0.10;;;16.50;99.90;;;;;;20418673;29;20198;-71
2021/11/03 16:02:18;;;;;;;0.20;0.00;;;16.40;99.90;;;;;;20418132;29;20582;-72
2021/11/03 16:12:24;;;;;;;0.20;0.10;;;16.30;99.90;;;;;;20417066;29;20201;-69
2021/11/03 16:22:32;;;;;;;0.20;0.10;;;15.90;99.90;;;;;;20418028;29;20228;-70
2021/11/03 16:32:37;;;;;;;0.20;0.10;;;15.70;99.90;;;;;;20416418;29;20599;-72
2021/11/03 16:42:44;;;;;;;0.20;0.00;;;15.50;99.90;;;;;;20415834;29;20190;-71
2021/11/03 16:52:48;;;;;;;0.20;0.10;;;15.20;99.90;;;;;;20399068;29;20726;-72
2021/11/03 17:02:53;;;;;;;0.20;0.10;;;15.20;99.90;;;;;;20415658;29;20237;-72
2021/11/03 17:13:16;;;;;;;0.20;0.10;;;14.90;99.90;;;;;;20397612;29;20550;-72
2021/11/03 17:23:24;;;;;;;0.20;0.10;;;14.80;99.90;;;;;;20413822;29;20205;-70
2021/11/03 17:33:29;;;;;;;0.20;0.00;;;14.60;99.90;;;;;;20413450;29;20224;-70
2021/11/03 17:43:38;;;;;;;0.20;0.10;;;14.60;99.90;;;;;;20414384;29;20201;-71
2021/11/03 17:53:42;;;;;;;0.20;0.10;;;14.70;99.90;;;;;;20422528;29;20267;-70
2021/11/03 18:03:48;;;;;;;0.20;0.00;;;14.80;99.90;;;;;;20426182;29;20237;-72
2021/11/03 18:13:56;;;;;;;0.20;0.10;;;14.40;99.90;;;;;;20423653;29;20237;-69
2021/11/03 18:24:02;;;;;;;0.20;0.10;;;14.30;99.90;;;;;;20424821;29;20197;-70
2021/11/03 18:34:07;;;;;;;0.20;0.00;;;14.20;99.90;;;;;;20424711;29;20229;-70
2021/11/03 18:44:18;;;;;;;0.20;0.10;;;13.90;99.90;;;;;;20422939;29;20555;-70
2021/11/03 18:54:26;;;;;;;0.20;0.00;;;13.70;99.90;;;;;;20422857;29;20256;-69
2021/11/03 19:04:52;;;;;;;0.20;0.10;;;13.30;99.90;;;;;;20422738;29;20588;-70
2021/11/03 19:14:56;;;;;;;0.40;0.40;;;13.00;99.90;;;;;;20475992;29;20249;-70
2021/11/03 19:25:04;;;;;;;0.20;0.10;;;12.70;99.90;;;;;;20431803;29;20664;-69
2021/11/03 19:35:07;;;;;;;0.20;0.10;;;12.40;99.90;;;;;;20422555;29;20225;-70
2021/11/03 19:45:16;;;;;;;0.20;0.00;;;12.10;99.90;;;;;;20403618;29;20220;-71
2021/11/03 19:55:24;;;;;;;0.20;0.10;;;12.00;99.90;;;;;;20401445;29;20236;-69
2021/11/03 20:05:31;;;;;;;0.20;0.10;;;11.90;99.90;;;;;;20416427;29;20241;-70
2021/11/03 20:15:38;;;;;;;0.20;0.00;;;11.60;99.90;;;;;;20417793;29;20229;-69
2021/11/03 20:25:43;;;;;;;0.20;0.10;;;11.40;99.90;;;;;;20415649;29;20216;-69
2021/11/03 20:35:49;;;;;;;0.20;0.10;;;11.40;99.90;;;;;;20414704;29;20225;-70
2021/11/03 20:45:55;;;;;;;0.20;0.10;;;11.30;99.90;;;;;;20413315;29;20252;-70
2021/11/03 20:56:01;;;;;;;0.20;0.10;;;11.30;99.90;;;;;;20414762;29;20229;-71
2021/11/03 21:06:06;;;;;;;0.20;0.10;;;11.20;99.90;;;;;;20414506;29;20701;-70
2021/11/03 21:16:10;;;;;;;0.20;0.10;;;11.50;99.90;;;;;;20413484;29;20272;-70
2021/11/03 21:26:18;;;;;;;0.20;0.10;;;11.40;99.90;;;;;;20412205;29;20663;-69
2021/11/03 21:36:22;;;;;;;0.20;0.10;;;11.50;99.90;;;;;;20412751;29;20323;-71
2021/11/03 21:46:28;;;;;;;0.20;0.10;;;11.20;99.90;;;;;;20413907;29;20540;-70
2021/11/03 21:56:32;;;;;;;0.40;0.40;;;11.10;99.90;;;;;;20411723;29;20225;-71
2021/11/03 22:06:37;;;;;;;0.20;0.10;;;11.10;99.90;;;;;;20411435;29;20321;-71
2021/11/03 22:16:43;;;;;;;0.20;0.10;;;11.20;99.90;;;;;;20410728;29;20665;-70
2021/11/03 22:26:48;;;;;;;0.20;0.10;;;11.30;99.90;;;;;;20446792;29;20208;-70
2021/11/03 22:36:54;;;;;;;21.33;19.73;;;11.60;99.90;;;;;;20416151;29;20248;-70
2021/11/03 22:46:59;;;;;;;0.20;0.10;;;11.70;99.90;;;;;;20402754;29;20295;-70
2021/11/03 22:57:04;;;;;;;0.20;0.10;;;11.60;99.90;;;;;;20502494;29;20264;-71
2021/11/03 23:07:09;;;;;;;0.20;0.10;;;11.90;99.90;;;;;;20458200;29;20312;-70
2021/11/03 23:17:13;;;;;;;0.20;0.10;;;12.00;99.90;;;;;;20420248;29;20271;-70
2021/11/03 23:27:18;;;;;;;0.20;0.10;;;11.90;99.90;;;;;;20420811;29;20530;-70
2021/11/03 23:37:22;;;;;;;0.20;0.10;;;11.80;99.90;;;;;;20402146;29;20319;-70
2021/11/03 23:47:27;;;;;;;0.20;0.10;;;11.50;99.90;;;;;;20419204;29;20553;-70
2021/11/03 23:57:31;;;;;;;0.53;0.53;;;11.40;99.90;;;;;;20419359;29;20281;-72
